| time (UTC) | temp C | wind direction | speed KPH | gust KPH | rain 1hr cm | rain 24hr cm | rain mn cm | humidity % | barometer mb |
| 20260906200005 | 27 | 170 | 11.3 | 0.0 | 0.00 | 0.03 | 0.00 | 74 | 1013.5 |
| 20260906190011 | 26 | 130 | 9.7 | 0.0 | 0.00 | 0.03 | 0.00 | 79 | 1013.9 |
| 20260906180012 | 25 | 150 | 14.5 | 0.0 | 0.00 | 0.03 | 0.00 | 83 | 1014.6 |
| 20260906170012 | 23 | 140 | 12.9 | 0.0 | 0.00 | 0.03 | 0.00 | 83 | 1015.2 |
| 20260906160010 | 22 | 150 | 14.5 | 0.0 | 0.00 | 0.13 | 0.00 | 89 | 1015.6 |
| 20260906150008 | 22 | 140 | 12.9 | 0.0 | 0.00 | 0.53 | 0.00 | 89 | 1015.6 |
| 20260906140013 | 21 | 140 | 9.7 | 0.0 | 0.00 | 0.53 | 0.00 | 88 | 1015.9 |
| 20260906130012 | 21 | 140 | 12.9 | 0.0 | 0.00 | 0.53 | 0.00 | 88 | 1015.9 |
| 20260906120004 | 21 | 140 | 14.5 | 0.0 | 0.00 | 0.53 | 0.00 | 88 | 1015.2 |
| 20260906110009 | 21 | 130 | 11.3 | 0.0 | 0.00 | 0.53 | 0.00 | 88 | 1015.2 |
| 20260906100004 | 18 | 90 | 4.8 | 0.0 | 0.00 | 0.53 | 0.00 | 94 | 1015.6 |
| 20260906090011 | 18 | 70 | 9.7 | 0.0 | 0.00 | 0.53 | 0.00 | 10 | 1015.2 |
| 20260906080005 | 20 | 20 | 8.0 | 0.0 | 0.00 | 0.53 | 0.00 | 94 | 1015.6 |
| 20260906070013 | 21 | 90 | 8.0 | 0.0 | 0.00 | 0.53 | 0.00 | 88 | 1015.6 |
| 20260906060009 | 21 | 120 | 11.3 | 0.0 | 0.00 | 0.53 | 0.00 | 88 | 1015.2 |
| 20260906050004 | 21 | 100 | 11.3 | 0.0 | 0.00 | 0.53 | 0.00 | 88 | 1015.2 |
| 20260906040010 | 22 | 120 | 12.9 | 0.0 | 0.00 | 0.53 | 0.53 | 88 | 1015.2 |
| 20260906030004 | 22 | 70 | 9.7 | 0.0 | 0.03 | 0.53 | 0.53 | 89 | 1015.2 |
| 20260906020007 | 23 | 50 | 11.3 | 0.0 | 0.00 | 0.51 | 0.51 | 83 | 1015.2 |
| 20260906010005 | 26 | 70 | 8.0 | 0.0 | 0.00 | 0.51 | 0.51 | 74 | 1014.2 |
| 20260906000011 | 27 | 150 | 12.9 | 0.0 | 0.00 | 0.51 | 0.51 | 62 | 1012.5 |
| 20260905230011 | 27 | 150 | 17.7 | 0.0 | 0.00 | 0.51 | 0.51 | 58 | 1012.9 |
| 20260905220006 | 28 | 170 | 17.7 | 27.4 | 0.00 | 0.51 | 0.51 | 58 | 1012.9 |
| 20260905210013 | 27 | 160 | 25.7 | 0.0 | 0.00 | 0.51 | 0.51 | 58 | 1013.2 |